createdAt,value
2019-02-02T00:01:30.431Z,6.3
2019-02-02T00:11:26.826Z,5.6
2019-02-02T00:21:27.983Z,5.6
2019-02-02T00:31:27.724Z,5.0
2019-02-02T00:41:27.035Z,4.8
2019-02-02T00:51:26.728Z,4.2
2019-02-02T01:01:26.835Z,4.9
2019-02-02T01:11:27.142Z,4.6
2019-02-02T01:21:26.169Z,5.5
2019-02-02T01:31:25.935Z,5.1
2019-02-02T01:41:27.333Z,5.1
2019-02-02T01:51:26.204Z,5.3
2019-02-02T02:01:26.056Z,5.4
2019-02-02T02:11:26.800Z,6.0
2019-02-02T02:21:26.929Z,6.2
2019-02-02T02:31:27.850Z,5.9
2019-02-02T02:41:26.690Z,6.5
2019-02-02T02:51:26.429Z,5.2
2019-02-02T03:01:26.239Z,5.1
2019-02-02T03:11:26.208Z,5.7
2019-02-02T03:21:26.444Z,5.7
2019-02-02T03:31:26.799Z,10.8
2019-02-02T03:41:26.969Z,13.3
2019-02-02T03:51:25.992Z,13.2
2019-02-02T04:01:29.583Z,6.4
2019-02-02T04:11:28.167Z,11.8
2019-02-02T04:21:26.162Z,14.4
2019-02-02T04:31:25.799Z,19.5
2019-02-02T04:41:26.725Z,21.3
2019-02-02T04:51:27.211Z,8.8
2019-02-02T05:01:26.032Z,5.1
2019-02-02T05:11:25.743Z,6.9
2019-02-02T05:21:25.963Z,8.0
2019-02-02T05:31:26.579Z,11.2
2019-02-02T05:41:27.737Z,13.7
2019-02-02T05:51:27.105Z,14.9
2019-02-02T06:01:29.721Z,9.0
2019-02-02T06:11:26.045Z,8.0
2019-02-02T06:21:25.889Z,7.9
2019-02-02T06:31:26.326Z,7.4
2019-02-02T06:41:26.241Z,5.9
2019-02-02T06:51:27.017Z,5.2
2019-02-02T07:01:26.349Z,3.5
2019-02-02T07:11:27.008Z,3.1
2019-02-02T07:21:28.696Z,3.3
2019-02-02T07:31:27.892Z,3.0
2019-02-02T07:41:26.652Z,3.2
2019-02-02T07:51:27.051Z,3.3
2019-02-02T08:01:26.114Z,3.8
2019-02-02T08:11:28.181Z,4.0
2019-02-02T08:21:26.422Z,4.2
2019-02-02T08:31:26.461Z,4.7
2019-02-02T08:41:26.487Z,4.7
2019-02-02T08:51:26.343Z,4.7
2019-02-02T09:01:26.300Z,5.5
2019-02-02T09:11:26.254Z,5.5
2019-02-02T09:21:28.117Z,4.9
2019-02-02T09:31:26.009Z,4.8
2019-02-02T09:41:26.778Z,5.2
2019-02-02T09:51:26.850Z,5.1
2019-02-02T10:01:27.920Z,5.4
2019-02-02T10:11:26.101Z,6.1
2019-02-02T10:21:27.914Z,5.8
2019-02-02T10:31:26.499Z,5.9
2019-02-02T10:41:27.770Z,5.9
2019-02-02T10:51:26.912Z,5.3
2019-02-02T11:01:28.149Z,5.7
2019-02-02T11:11:26.030Z,5.5
2019-02-02T11:21:26.585Z,5.6
2019-02-02T11:31:27.531Z,5.8
2019-02-02T11:41:27.575Z,5.8
2019-02-02T11:51:26.441Z,5.6
2019-02-02T12:01:26.556Z,4.9
2019-02-02T12:11:26.943Z,5.4
2019-02-02T12:21:26.165Z,4.6
2019-02-02T12:31:27.251Z,4.6
2019-02-02T12:41:27.190Z,5.5
2019-02-02T12:51:26.163Z,4.2
2019-02-02T13:01:26.984Z,5.2
2019-02-02T13:11:26.115Z,5.2
2019-02-02T13:21:27.602Z,6.0
2019-02-02T13:31:27.205Z,6.1
2019-02-02T13:41:26.696Z,5.4
2019-02-02T13:54:11.939Z,5.9
2019-02-02T14:01:27.313Z,6.7
2019-02-02T14:11:26.458Z,6.2
2019-02-02T14:21:28.085Z,6.4
2019-02-02T14:31:26.651Z,7.1
2019-02-02T14:41:27.237Z,7.6
2019-02-02T14:51:26.056Z,6.6
2019-02-02T15:01:26.775Z,7.7
2019-02-02T15:11:26.897Z,9.5
2019-02-02T15:21:26.036Z,8.4
2019-02-02T15:31:27.555Z,8.7
2019-02-02T15:41:26.745Z,8.6
2019-02-02T15:51:27.721Z,8.4
2019-02-02T16:01:28.605Z,8.2
2019-02-02T16:11:27.626Z,7.5
2019-02-02T16:21:25.984Z,8.5
2019-02-02T16:31:25.872Z,8.0
2019-02-02T16:41:26.887Z,8.4
2019-02-02T16:51:26.097Z,13.7
2019-02-02T17:01:27.330Z,15.4
2019-02-02T17:11:30.021Z,15.2
2019-02-02T17:21:29.099Z,15.0
2019-02-02T17:31:27.406Z,14.4
2019-02-02T17:41:26.607Z,13.8
2019-02-02T17:51:26.576Z,14.6
2019-02-02T18:01:27.008Z,11.7
2019-02-02T18:11:25.897Z,10.9
2019-02-02T18:21:27.093Z,9.7
2019-02-02T18:31:25.892Z,6.3
2019-02-02T18:41:26.049Z,6.3
2019-02-02T18:51:26.414Z,6.8
2019-02-02T19:01:27.487Z,7.0
2019-02-02T19:11:26.393Z,8.1
2019-02-02T19:21:27.207Z,7.4
2019-02-02T19:31:26.299Z,7.0
2019-02-02T19:41:26.127Z,7.5
2019-02-02T19:51:26.410Z,7.6
2019-02-02T20:01:27.040Z,7.2
2019-02-02T20:11:26.811Z,7.3
2019-02-02T20:21:25.957Z,7.3
2019-02-02T20:31:26.122Z,9.3
2019-02-02T20:41:26.280Z,8.0
2019-02-02T20:51:26.478Z,8.5
2019-02-02T21:01:26.752Z,10.5
2019-02-02T21:11:25.996Z,11.9
2019-02-02T21:21:26.565Z,17.2
2019-02-02T21:31:26.451Z,21.4
2019-02-02T21:41:26.817Z,27.4
2019-02-02T21:51:27.202Z,27.1
2019-02-02T22:01:28.480Z,33.7
2019-02-02T22:11:27.293Z,31.7
2019-02-02T22:21:26.105Z,32.7
2019-02-02T22:31:26.188Z,34.5
2019-02-02T22:41:26.272Z,35.8
2019-02-02T22:51:26.030Z,36.1
2019-02-02T23:01:26.649Z,35.8
2019-02-02T23:11:26.711Z,30.3
2019-02-02T23:21:27.419Z,30.0
2019-02-02T23:31:26.676Z,28.7
2019-02-02T23:41:29.012Z,28.6
2019-02-02T23:51:26.307Z,30.8
